createdAt,value
2023-05-05T00:02:13.202Z,8.02
2023-05-05T00:04:39.572Z,7.68
2023-05-05T00:07:06.000Z,8.07
2023-05-05T00:09:32.328Z,7.57
2023-05-05T00:11:58.622Z,7.85
2023-05-05T00:14:24.905Z,8.57
2023-05-05T00:16:51.213Z,8.45
2023-05-05T00:19:17.484Z,7.78
2023-05-05T00:21:43.840Z,8.07
2023-05-05T00:24:10.331Z,7.97
2023-05-05T00:26:36.659Z,7.80
2023-05-05T00:29:02.957Z,8.18
2023-05-05T00:31:29.362Z,7.72
2023-05-05T00:33:55.779Z,7.78
2023-05-05T00:36:22.160Z,7.93
2023-05-05T00:38:48.578Z,8.23
2023-05-05T00:41:14.887Z,7.50
2023-05-05T00:43:41.466Z,8.30
2023-05-05T00:46:25.214Z,7.63
2023-05-05T00:48:52.068Z,7.80
2023-05-05T00:51:19.349Z,7.45
2023-05-05T00:53:45.816Z,7.45
2023-05-05T00:56:12.891Z,7.38
2023-05-05T00:58:41.501Z,7.43
2023-05-05T01:01:07.951Z,7.65
2023-05-05T01:06:18.324Z,7.70
2023-05-05T01:09:04.510Z,7.72
2023-05-05T01:11:43.405Z,8.05
2023-05-05T01:17:05.093Z,8.43
2023-05-05T01:19:31.465Z,8.40
2023-05-05T01:22:00.718Z,7.80
2023-05-05T01:24:43.696Z,8.60
2023-05-05T01:29:58.237Z,8.90
2023-05-05T01:32:29.976Z,8.30
2023-05-05T01:37:41.848Z,9.38
2023-05-05T01:40:10.562Z,9.13
2023-05-05T01:42:37.959Z,9.32
2023-05-05T01:45:07.399Z,9.40
2023-05-05T01:47:33.837Z,9.68
2023-05-05T01:50:01.673Z,9.82
2023-05-05T01:52:29.577Z,10.18
2023-05-05T01:54:57.329Z,11.48
2023-05-05T01:57:24.851Z,10.90
2023-05-05T01:59:51.776Z,9.68
2023-05-05T02:02:20.654Z,10.23
2023-05-05T02:04:47.657Z,10.60
2023-05-05T02:07:14.596Z,10.55
2023-05-05T02:09:41.408Z,9.80
2023-05-05T02:12:08.381Z,9.45
2023-05-05T02:14:34.961Z,9.07
2023-05-05T02:17:01.809Z,9.85
2023-05-05T02:19:36.237Z,9.32
2023-05-05T02:22:02.978Z,9.40
2023-05-05T02:24:29.416Z,8.93
2023-05-05T02:26:56.882Z,9.57
2023-05-05T02:29:25.451Z,8.82
2023-05-05T02:31:55.209Z,8.63
2023-05-05T02:34:23.522Z,9.07
2023-05-05T02:36:52.575Z,8.90
2023-05-05T02:39:21.760Z,8.95
2023-05-05T02:41:48.574Z,9.13
2023-05-05T02:44:15.517Z,9.00
2023-05-05T02:46:42.690Z,8.63
2023-05-05T02:49:09.157Z,8.70
2023-05-05T02:51:35.596Z,7.55
2023-05-05T02:54:02.171Z,8.00
2023-05-05T02:56:33.103Z,7.82
2023-05-05T02:59:19.800Z,7.70
2023-05-05T03:01:51.220Z,8.00
2023-05-05T03:10:06.976Z,8.77
2023-05-05T03:12:41.824Z,8.88
2023-05-05T03:15:08.635Z,8.30
2023-05-05T03:17:36.005Z,7.70
2023-05-05T03:20:04.040Z,7.13
2023-05-05T03:22:30.703Z,7.72
2023-05-05T03:24:57.165Z,6.63
2023-05-05T03:27:23.491Z,6.63
2023-05-05T03:29:49.817Z,6.20
2023-05-05T03:32:16.379Z,6.70
2023-05-05T03:34:42.719Z,6.53
2023-05-05T03:37:09.046Z,6.55
2023-05-05T03:39:35.452Z,6.95
2023-05-05T03:42:01.825Z,7.10
2023-05-05T03:44:28.145Z,7.00
2023-05-05T03:46:54.449Z,7.13
2023-05-05T03:49:20.772Z,7.18
2023-05-05T03:51:47.431Z,6.93
2023-05-05T03:54:13.965Z,7.00
2023-05-05T03:56:40.359Z,7.07
2023-05-05T03:59:06.800Z,6.30
2023-05-05T04:01:33.262Z,5.57
2023-05-05T04:03:59.695Z,6.07
2023-05-05T04:06:26.337Z,6.35
2023-05-05T04:08:52.719Z,6.18
2023-05-05T04:11:19.110Z,5.85
2023-05-05T04:13:46.130Z,5.43
2023-05-05T04:16:12.796Z,5.43
2023-05-05T04:18:39.240Z,5.72
2023-05-05T04:21:05.624Z,5.88
2023-05-05T04:23:32.023Z,5.57
2023-05-05T04:25:58.418Z,5.75
2023-05-05T04:28:24.697Z,5.68
2023-05-05T04:30:51.044Z,5.45
2023-05-05T04:33:17.283Z,5.30
2023-05-05T04:35:43.573Z,5.60
2023-05-05T04:38:09.901Z,5.88
2023-05-05T04:40:40.708Z,6.53
2023-05-05T04:45:33.870Z,6.05
2023-05-05T04:48:00.338Z,6.43
2023-05-05T04:50:26.977Z,6.47
2023-05-05T04:52:53.250Z,6.40
2023-05-05T04:55:19.673Z,6.38
2023-05-05T04:57:46.056Z,6.30
2023-05-05T05:00:12.612Z,7.05
2023-05-05T05:02:39.005Z,6.18
2023-05-05T05:05:05.881Z,6.25
2023-05-05T05:07:32.256Z,6.25
2023-05-05T05:09:58.614Z,6.05
2023-05-05T05:12:24.936Z,6.55
2023-05-05T05:14:51.807Z,6.80
2023-05-05T05:17:19.541Z,6.78
2023-05-05T05:19:45.955Z,6.57
2023-05-05T05:22:12.296Z,7.10
2023-05-05T05:24:38.614Z,7.10
2023-05-05T05:27:09.856Z,7.00
2023-05-05T05:29:36.655Z,7.35
2023-05-05T05:32:02.995Z,7.97
2023-05-05T05:34:29.451Z,7.50
2023-05-05T05:36:55.749Z,7.38
2023-05-05T05:39:22.400Z,7.57
2023-05-05T05:41:48.724Z,7.13
2023-05-05T05:44:14.977Z,8.00
2023-05-05T05:46:41.296Z,7.68
2023-05-05T05:49:07.623Z,8.23
2023-05-05T05:51:33.978Z,7.53
2023-05-05T05:54:00.431Z,8.35
2023-05-05T05:56:26.873Z,8.77
2023-05-05T05:58:53.222Z,8.68
2023-05-05T06:01:19.625Z,8.85
2023-05-05T06:03:46.057Z,8.95
2023-05-05T06:06:12.503Z,9.10
2023-05-05T06:08:38.804Z,10.02
2023-05-05T06:11:05.451Z,9.13
2023-05-05T06:13:31.730Z,8.75
2023-05-05T06:15:58.030Z,9.55
2023-05-05T06:18:24.424Z,9.65
2023-05-05T06:20:51.072Z,8.77
2023-05-05T06:23:17.594Z,9.18
2023-05-05T06:25:43.927Z,8.48
2023-05-05T06:28:10.424Z,8.35
2023-05-05T06:30:36.796Z,7.93
2023-05-05T06:33:03.326Z,8.95
2023-05-05T06:35:30.434Z,8.82
2023-05-05T06:37:56.751Z,8.85
2023-05-05T06:40:23.209Z,9.32
2023-05-05T06:42:49.509Z,9.82
2023-05-05T06:45:16.276Z,9.23
2023-05-05T06:47:42.696Z,9.48
2023-05-05T06:50:09.387Z,9.77
2023-05-05T06:52:36.168Z,9.40
2023-05-05T06:55:03.736Z,9.27
2023-05-05T06:57:30.118Z,8.77
2023-05-05T06:59:56.481Z,8.50
2023-05-05T07:02:24.090Z,8.52
2023-05-05T07:04:52.431Z,8.50
2023-05-05T07:07:18.726Z,8.93
2023-05-05T07:09:45.082Z,8.82
2023-05-05T07:12:11.408Z,8.05
2023-05-05T07:14:37.720Z,9.13
2023-05-05T07:17:04.116Z,9.25
2023-05-05T07:19:30.624Z,8.80
2023-05-05T07:21:56.984Z,8.60
2023-05-05T07:24:23.796Z,7.35
2023-05-05T07:26:50.099Z,7.35
2023-05-05T07:29:16.518Z,7.97
2023-05-05T07:31:42.976Z,8.55
2023-05-05T07:34:09.500Z,8.15
2023-05-05T07:36:36.055Z,6.68
2023-05-05T07:39:02.450Z,6.65
2023-05-05T07:41:28.844Z,7.00
2023-05-05T07:43:55.232Z,7.18
2023-05-05T07:46:21.685Z,7.65
2023-05-05T07:48:48.183Z,8.23
2023-05-05T07:51:14.566Z,7.30
2023-05-05T07:53:41.260Z,6.60
2023-05-05T07:56:08.867Z,6.30
2023-05-05T07:58:35.358Z,6.28
2023-05-05T08:01:01.869Z,6.15
2023-05-05T08:03:28.336Z,5.95
2023-05-05T08:05:55.577Z,5.80
2023-05-05T08:08:24.919Z,6.47
2023-05-05T08:10:53.110Z,5.70
2023-05-05T08:13:19.784Z,5.97
2023-05-05T08:15:46.389Z,5.15
2023-05-05T08:18:13.166Z,5.63
2023-05-05T08:20:39.577Z,5.90
2023-05-05T08:23:06.178Z,5.03
2023-05-05T08:25:32.484Z,4.55
2023-05-05T08:27:58.809Z,5.00
2023-05-05T08:30:25.238Z,4.38
2023-05-05T08:32:51.628Z,4.60
2023-05-05T08:35:18.044Z,4.55
2023-05-05T08:37:44.495Z,3.70
2023-05-05T08:40:14.325Z,3.83
2023-05-05T08:42:41.508Z,4.30
2023-05-05T08:45:08.915Z,4.07
2023-05-05T08:47:36.732Z,3.97
2023-05-05T08:50:05.638Z,3.38
2023-05-05T08:52:37.762Z,3.67
2023-05-05T08:55:12.787Z,3.00
2023-05-05T08:57:52.344Z,2.80
2023-05-05T09:00:19.726Z,3.60
2023-05-05T09:02:46.614Z,3.50
2023-05-05T09:05:13.089Z,4.00
2023-05-05T09:07:41.499Z,4.78
2023-05-05T09:10:11.465Z,5.05
2023-05-05T09:12:40.474Z,5.38
2023-05-05T09:15:08.163Z,5.57
2023-05-05T09:17:34.757Z,5.07
2023-05-05T09:20:07.408Z,5.00
2023-05-05T09:22:33.756Z,5.10
2023-05-05T09:25:00.113Z,5.53
2023-05-05T09:27:26.991Z,5.18
2023-05-05T09:29:54.164Z,4.30
2023-05-05T09:32:20.597Z,4.25
2023-05-05T09:35:00.322Z,4.20
2023-05-05T09:40:09.287Z,2.47
2023-05-05T09:42:37.142Z,2.50
2023-05-05T09:45:04.861Z,2.45
2023-05-05T09:47:37.467Z,4.68
2023-05-05T09:50:04.256Z,4.57
2023-05-05T09:52:30.989Z,6.40
2023-05-05T09:54:57.599Z,5.57
2023-05-05T09:57:31.599Z,6.20
2023-05-05T09:59:58.919Z,5.95
2023-05-05T10:02:33.003Z,5.25
2023-05-05T10:05:18.078Z,5.72
2023-05-05T10:07:45.487Z,5.53
2023-05-05T10:10:15.219Z,5.88
2023-05-05T10:12:42.225Z,6.00
2023-05-05T10:15:09.827Z,5.78
2023-05-05T10:17:37.147Z,5.32
2023-05-05T10:20:03.963Z,5.10
2023-05-05T10:22:34.554Z,4.13
2023-05-05T10:25:10.128Z,3.03
2023-05-05T10:27:43.658Z,1.92
2023-05-05T10:30:13.781Z,1.80
2023-05-05T10:35:16.011Z,1.77
2023-05-05T10:37:42.383Z,1.50
2023-05-05T10:40:09.719Z,1.17
2023-05-05T10:42:39.954Z,1.10
2023-05-05T10:45:09.695Z,1.20
2023-05-05T10:47:36.867Z,1.33
2023-05-05T10:50:13.653Z,1.00
2023-05-05T10:52:43.185Z,1.02
2023-05-05T10:55:32.508Z,0.98
2023-05-05T10:57:58.801Z,0.98
2023-05-05T11:00:40.482Z,1.20
2023-05-05T11:03:33.209Z,1.20
2023-05-05T11:06:02.357Z,1.30
2023-05-05T11:08:29.043Z,1.83
2023-05-05T11:10:55.659Z,2.20
2023-05-05T11:13:22.134Z,2.80
2023-05-05T11:15:51.943Z,1.95
2023-05-05T11:18:36.930Z,2.40
2023-05-05T11:21:15.716Z,2.50
2023-05-05T11:23:45.104Z,3.05
2023-05-05T11:26:12.346Z,2.80
2023-05-05T11:28:57.335Z,2.83
2023-05-05T11:31:24.002Z,3.28
2023-05-05T11:33:50.502Z,2.90
2023-05-05T11:36:17.925Z,3.20
2023-05-05T11:39:03.340Z,3.30
2023-05-05T11:41:32.688Z,3.05
2023-05-05T11:44:12.291Z,2.58
2023-05-05T11:47:01.625Z,2.63
2023-05-05T11:49:34.909Z,2.53
2023-05-05T11:52:02.072Z,3.20
2023-05-05T11:54:28.511Z,3.00
2023-05-05T11:56:59.234Z,2.75
2023-05-05T11:59:25.656Z,3.50
2023-05-05T12:01:52.295Z,3.38
2023-05-05T12:04:18.919Z,3.90
2023-05-05T12:06:46.148Z,3.25
2023-05-05T12:09:16.264Z,3.97
2023-05-05T12:11:48.997Z,3.97
2023-05-05T12:14:15.471Z,4.00
2023-05-05T12:16:53.460Z,3.10
2023-05-05T12:19:19.780Z,3.25
2023-05-05T12:21:46.104Z,3.22
2023-05-05T12:24:14.852Z,3.40
2023-05-05T12:26:41.262Z,3.90
2023-05-05T12:29:07.675Z,4.15
2023-05-05T12:31:33.980Z,3.83
2023-05-05T12:34:00.810Z,4.03
2023-05-05T12:36:28.685Z,3.70
2023-05-05T12:38:56.412Z,3.67
2023-05-05T12:41:22.771Z,3.55
2023-05-05T12:43:54.087Z,3.90
2023-05-05T12:46:20.648Z,3.70
2023-05-05T12:48:59.270Z,3.55
2023-05-05T12:51:25.535Z,3.65
2023-05-05T12:54:04.598Z,3.13
2023-05-05T12:56:41.459Z,3.10
2023-05-05T12:59:08.796Z,2.58
2023-05-05T13:01:36.296Z,3.13
2023-05-05T13:04:13.018Z,3.38
2023-05-05T13:06:47.306Z,3.42
2023-05-05T13:09:23.712Z,3.08
2023-05-05T13:11:50.024Z,3.25
2023-05-05T13:14:16.339Z,2.75
2023-05-05T13:16:42.628Z,2.90
2023-05-05T13:19:08.913Z,2.50
2023-05-05T13:21:35.233Z,2.33
2023-05-05T13:24:20.752Z,2.53
2023-05-05T13:26:48.408Z,2.85
2023-05-05T13:29:16.296Z,2.72
2023-05-05T13:31:43.199Z,2.80
2023-05-05T13:34:09.520Z,3.08
2023-05-05T13:36:35.872Z,2.60
2023-05-05T13:39:05.079Z,2.53
2023-05-05T13:41:31.559Z,2.72
2023-05-05T13:43:57.883Z,3.08
2023-05-05T13:46:24.302Z,2.80
2023-05-05T13:48:56.070Z,2.25
2023-05-05T13:51:22.843Z,2.83
2023-05-05T13:53:49.128Z,2.50
2023-05-05T13:56:15.449Z,4.40
2023-05-05T13:58:42.494Z,3.00
2023-05-05T14:01:10.178Z,3.50
2023-05-05T14:03:36.559Z,3.03
2023-05-05T14:06:02.933Z,3.00
2023-05-05T14:08:29.359Z,2.90
2023-05-05T14:10:55.789Z,2.50
2023-05-05T14:13:22.225Z,2.90
2023-05-05T14:15:50.595Z,2.70
2023-05-05T14:18:16.928Z,1.95
2023-05-05T14:20:43.288Z,2.08
2023-05-05T14:23:09.774Z,1.48
2023-05-05T14:25:36.102Z,1.85
2023-05-05T14:28:04.782Z,1.38
2023-05-05T14:30:31.089Z,1.70
2023-05-05T14:32:57.529Z,1.52
2023-05-05T14:35:24.480Z,1.48
2023-05-05T14:37:50.910Z,1.50
2023-05-05T14:40:17.319Z,1.30
2023-05-05T14:42:45.970Z,1.42
2023-05-05T14:45:12.332Z,1.20
2023-05-05T14:47:38.650Z,1.40
2023-05-05T14:50:07.676Z,1.42
2023-05-05T14:52:33.994Z,1.45
2023-05-05T14:55:00.660Z,1.40
2023-05-05T14:57:27.056Z,1.02
2023-05-05T14:59:53.439Z,1.33
2023-05-05T15:02:19.782Z,1.55
2023-05-05T15:04:47.083Z,1.08
2023-05-05T15:07:14.851Z,1.80
2023-05-05T15:09:41.261Z,1.30
2023-05-05T15:12:07.676Z,1.30
2023-05-05T15:14:33.991Z,1.50
2023-05-05T15:17:00.336Z,1.20
2023-05-05T15:19:26.670Z,1.10
2023-05-05T15:21:54.138Z,1.60
2023-05-05T15:24:22.723Z,1.30
2023-05-05T15:26:49.023Z,1.00
2023-05-05T15:29:15.392Z,1.10
2023-05-05T15:31:42.174Z,1.40
2023-05-05T15:34:08.476Z,0.98
2023-05-05T15:36:34.791Z,1.23
2023-05-05T15:39:01.189Z,1.08
2023-05-05T15:41:29.293Z,1.10
2023-05-05T15:43:55.846Z,1.20
2023-05-05T15:46:22.272Z,1.50
2023-05-05T15:48:48.675Z,1.55
2023-05-05T15:51:16.534Z,1.10
2023-05-05T15:53:42.927Z,1.20
2023-05-05T15:56:11.588Z,1.27
2023-05-05T15:58:37.870Z,1.00
2023-05-05T16:01:04.295Z,1.30
2023-05-05T16:03:30.962Z,1.10
2023-05-05T16:05:57.498Z,1.10
2023-05-05T16:08:23.796Z,1.10
2023-05-05T16:10:50.197Z,1.08
2023-05-05T16:13:16.672Z,1.00
2023-05-05T16:15:42.996Z,1.52
2023-05-05T16:18:09.312Z,1.30
2023-05-05T16:20:36.152Z,1.10
2023-05-05T16:23:02.532Z,0.70
2023-05-05T16:25:28.892Z,1.00
2023-05-05T16:27:57.486Z,0.80
2023-05-05T16:30:23.842Z,1.30
2023-05-05T16:32:51.755Z,1.60
2023-05-05T16:35:18.202Z,1.20
2023-05-05T16:37:48.204Z,1.15
2023-05-05T16:40:14.520Z,1.27
2023-05-05T16:42:42.972Z,1.10
2023-05-05T16:45:10.947Z,1.20
2023-05-05T16:47:37.401Z,1.40
2023-05-05T16:50:04.193Z,0.95
2023-05-05T16:52:30.505Z,1.30
2023-05-05T16:54:57.267Z,1.13
2023-05-05T16:57:24.770Z,1.00
2023-05-05T16:59:51.126Z,1.20
2023-05-05T17:02:17.510Z,1.20
2023-05-05T17:04:43.815Z,1.08
2023-05-05T17:07:10.165Z,1.20
2023-05-05T17:09:36.462Z,1.10
2023-05-05T17:12:04.356Z,1.33
2023-05-05T17:14:31.052Z,1.20
2023-05-05T17:17:00.446Z,1.20
2023-05-05T17:19:26.886Z,1.13
2023-05-05T17:21:54.362Z,1.25
2023-05-05T17:24:20.809Z,1.13
2023-05-05T17:26:47.177Z,1.27
2023-05-05T17:29:19.843Z,1.30
2023-05-05T17:31:46.399Z,1.27
2023-05-05T17:34:12.850Z,1.00
2023-05-05T17:36:41.969Z,1.10
2023-05-05T17:39:10.510Z,1.10
2023-05-05T17:41:36.840Z,1.20
2023-05-05T17:44:03.616Z,1.25
2023-05-05T17:46:30.280Z,1.38
2023-05-05T17:48:56.614Z,1.30
2023-05-05T17:51:22.908Z,1.30
2023-05-05T17:53:50.354Z,1.40
2023-05-05T17:56:17.103Z,1.23
2023-05-05T17:58:43.476Z,1.65
2023-05-05T18:01:13.549Z,1.60
2023-05-05T18:03:41.080Z,1.65
2023-05-05T18:06:07.716Z,1.45
2023-05-05T18:08:33.981Z,1.40
2023-05-05T18:11:02.266Z,1.55
2023-05-05T18:13:28.663Z,1.42
2023-05-05T18:15:55.026Z,1.48
2023-05-05T18:18:22.125Z,1.50
2023-05-05T18:20:48.605Z,1.60
2023-05-05T18:23:15.053Z,1.60
2023-05-05T18:25:41.589Z,1.90
2023-05-05T18:28:07.965Z,2.00
2023-05-05T18:30:35.603Z,2.10
2023-05-05T18:33:02.173Z,1.88
2023-05-05T18:35:29.165Z,2.08
2023-05-05T18:37:55.695Z,1.80
2023-05-05T18:40:22.151Z,1.88
2023-05-05T18:42:48.506Z,1.70
2023-05-05T18:45:14.989Z,1.83
2023-05-05T18:47:41.551Z,2.05
2023-05-05T18:50:09.856Z,2.20
2023-05-05T18:52:36.321Z,2.05
2023-05-05T18:55:33.955Z,2.30
2023-05-05T18:58:00.354Z,2.30
2023-05-05T19:00:26.700Z,1.80
2023-05-05T19:02:53.818Z,2.10
2023-05-05T19:05:20.229Z,2.20
2023-05-05T19:07:47.017Z,2.17
2023-05-05T19:10:13.416Z,2.25
2023-05-05T19:12:39.815Z,2.05
2023-05-05T19:15:09.540Z,2.55
2023-05-05T19:17:36.307Z,2.20
2023-05-05T19:20:03.026Z,2.53
2023-05-05T19:22:29.330Z,2.10
2023-05-05T19:24:58.103Z,2.40
2023-05-05T19:27:24.482Z,2.30
2023-05-05T19:29:52.622Z,2.35
2023-05-05T19:32:19.682Z,1.88
2023-05-05T19:34:50.157Z,2.38
2023-05-05T19:37:16.488Z,2.15
2023-05-05T19:39:44.747Z,2.25
2023-05-05T19:42:11.306Z,2.40
2023-05-05T19:44:37.618Z,2.22
2023-05-05T19:47:04.592Z,2.00
2023-05-05T19:49:30.918Z,2.10
2023-05-05T19:51:58.785Z,1.88
2023-05-05T19:54:25.245Z,2.10
2023-05-05T19:56:52.170Z,2.30
2023-05-05T19:59:18.545Z,2.05
2023-05-05T20:01:44.947Z,2.60
2023-05-05T20:04:11.323Z,2.10
2023-05-05T20:06:37.643Z,2.50
2023-05-05T20:09:04.333Z,2.55
2023-05-05T20:11:30.949Z,2.33
2023-05-05T20:13:57.813Z,2.50
2023-05-05T20:16:24.294Z,2.80
2023-05-05T20:18:51.102Z,2.83
2023-05-05T20:21:18.065Z,2.40
2023-05-05T20:23:45.898Z,2.90
2023-05-05T20:26:12.463Z,3.05
2023-05-05T20:28:39.503Z,2.83
2023-05-05T20:31:06.721Z,3.08
2023-05-05T20:33:33.086Z,2.90
2023-05-05T20:35:59.457Z,3.28
2023-05-05T20:38:25.805Z,3.20
2023-05-05T20:40:52.331Z,3.10
2023-05-05T20:43:18.969Z,3.50
2023-05-05T20:45:45.314Z,3.30
2023-05-05T20:48:11.666Z,3.25
2023-05-05T20:50:38.684Z,3.42
2023-05-05T20:53:07.056Z,3.00
2023-05-05T20:55:33.434Z,3.70
2023-05-05T20:57:59.754Z,3.50
2023-05-05T21:00:26.335Z,3.45
2023-05-05T21:02:53.298Z,3.95
2023-05-05T21:05:19.849Z,3.45
2023-05-05T21:07:46.405Z,3.65
2023-05-05T21:10:12.899Z,4.10
2023-05-05T21:12:39.995Z,3.88
2023-05-05T21:15:07.342Z,4.15
2023-05-05T21:17:33.852Z,4.25
2023-05-05T21:20:00.385Z,4.20
2023-05-05T21:22:26.752Z,4.55
2023-05-05T21:24:53.761Z,4.40
2023-05-05T21:27:20.930Z,4.35
2023-05-05T21:29:49.431Z,4.15
2023-05-05T21:32:15.769Z,3.85
2023-05-05T21:34:42.048Z,4.57
2023-05-05T21:37:08.485Z,4.25
2023-05-05T21:39:35.638Z,5.00
2023-05-05T21:42:02.185Z,4.45
2023-05-05T21:44:28.651Z,3.97
2023-05-05T21:46:55.233Z,4.45
2023-05-05T21:49:21.635Z,5.25
2023-05-05T21:51:47.996Z,6.00
2023-05-05T21:54:14.425Z,7.80
2023-05-05T21:56:40.915Z,8.90
2023-05-05T21:59:07.509Z,9.60
2023-05-05T22:04:21.205Z,10.35
2023-05-05T22:06:47.479Z,11.15
2023-05-05T22:09:13.940Z,13.00
2023-05-05T22:11:40.420Z,12.40
2023-05-05T22:14:06.814Z,15.98
2023-05-05T22:16:33.206Z,17.65
2023-05-05T22:18:59.592Z,17.70
2023-05-05T22:21:27.437Z,12.93
2023-05-05T22:23:53.797Z,13.52
2023-05-05T22:26:20.633Z,12.48
2023-05-05T22:28:47.029Z,12.52
2023-05-05T22:31:13.581Z,12.68
2023-05-05T22:33:39.952Z,12.48
2023-05-05T22:38:42.285Z,10.80
2023-05-05T22:41:08.820Z,10.20
2023-05-05T22:43:35.266Z,10.20
2023-05-05T22:46:01.651Z,9.10
2023-05-05T22:48:27.985Z,8.77
2023-05-05T22:50:54.440Z,9.52
2023-05-05T22:53:20.864Z,9.63
2023-05-05T22:55:47.273Z,9.40
2023-05-05T22:58:13.650Z,8.23
2023-05-05T23:00:40.040Z,8.90
2023-05-05T23:03:06.504Z,7.95
2023-05-05T23:05:34.509Z,7.30
2023-05-05T23:08:01.358Z,7.05
2023-05-05T23:10:28.881Z,7.70
2023-05-05T23:12:55.516Z,6.78
2023-05-05T23:15:21.842Z,7.38
2023-05-05T23:17:48.225Z,6.50
2023-05-05T23:20:15.177Z,7.63
2023-05-05T23:22:41.573Z,6.65
2023-05-05T23:25:08.405Z,6.88
2023-05-05T23:27:34.876Z,7.22
2023-05-05T23:30:01.442Z,6.35
2023-05-05T23:32:27.849Z,6.90
2023-05-05T23:34:54.259Z,7.28
2023-05-05T23:37:20.589Z,7.47
2023-05-05T23:39:47.146Z,7.55
2023-05-05T23:42:13.457Z,8.15
2023-05-05T23:44:39.811Z,7.82
2023-05-05T23:47:06.333Z,7.50
2023-05-05T23:49:32.671Z,7.75
2023-05-05T23:51:58.964Z,7.60
2023-05-05T23:54:25.290Z,8.27
2023-05-05T23:56:51.673Z,8.50
2023-05-05T23:59:18.275Z,7.43
